الصفحة الرئيسية
METAR-TAF:

METAR-TAF

مطار :

Pueblo, كولورادو, الولايات المتحدة

Pueblo Memorial Airport

دائرة عرض: 38-17-24N, خط طول: 104-29-54W, ارتفاع: 1440 متر

مراقبة الطقس الحالي

تاريخ ووقت الإصدار 6 دقيقة قبل الساعة 16:00UTC
ريح 3 عقدةمن اتجاهات متغيرة
درجة الحرارة 7°درجة مئوية
الرطوبة 70%
ضغط 1028 hPa
الرؤية: 16.1 كم
غيوم مفككة على ارتفاع 2100 قدم

METAR: KPUB 251600Z VRB03KT 10SM BKN021 07/02 A3035 RMK AO2 T00720017

زمن: 10:06 (16:06 UTC)

توقعات

تاريخ ووقت الإصدار 4ساعات و 19 دقيقة قبل الساعة 11:47UTC
التوقعات صالحة من25 الساعة 12 UTC إلى 26 الساعة 12 UTC
ريح 5 عقدةمن اتجاهات متغيرة
الرؤية: 10 كم
سماء صافية
من 25 الساعة 2000 UTC
ريح 7 عقدة من الجنوب الشرقي
الرؤية: 10 كم
سماء صافية
من 26 الساعة 0400 UTC
ريح 5 عقدة من الغرب/الشمال الغربي
الرؤية: 10 كم
غيوم قليلة على ارتفاع 25000 قدم
من 26 الساعة 1100 UTC
ريح 15 عقدة من الشمال تتزايد حتى 25 عقدة
الرؤية: 10 كم
غيوم متفرقة على ارتفاع 10000 قدم
غيوم متفرقة على ارتفاع 25000 قدم

TAF: KPUB 251147Z 2512/2612 VRB05KT P6SM SKC FM252000 13007KT P6SM SKC FM260400 29005KT P6SM FEW250 FM261100 36015G25KT P6SM SCT100 SCT250

أرصاد الطقس والتوقعات من أكثر من 4000 مطار (تقارير الطقس للمطار METAR والتنبؤ بالطقس بالمطارTAF).

المحطات المتاحة هي النقط الصفراء والحمراء على الخريطة.

حرك المؤشر فوق النقطة لمعرفة اسم المحطة.

ثم انقر لمعرفة أرصاد وتوقعات الطقس.

لتغيير الخارطة: اضغط على الأزرار الخضراء مع رمز الصليب الأسود للتكبير. على الزر الأخضر مع شرطة للتصغير، أو على الأسهم الخضراء للخرائط المجاورة.


METAR-TAF: